sensor_id;sensor_type;location;lat;lon;timestamp;P1;durP1;ratioP1;P2;durP2;ratioP2
5077;SDS011;2557;51.390;7.494;2023-04-12T00:00:12;10.73;;;2.60;;
5077;SDS011;2557;51.390;7.494;2023-04-12T00:02:39;9.67;;;2.70;;
5077;SDS011;2557;51.390;7.494;2023-04-12T00:05:06;7.37;;;3.53;;
5077;SDS011;2557;51.390;7.494;2023-04-12T00:07:33;5.13;;;2.80;;
5077;SDS011;2557;51.390;7.494;2023-04-12T00:09:59;9.10;;;2.63;;
5077;SDS011;2557;51.390;7.494;2023-04-12T00:12:25;6.30;;;2.30;;
5077;SDS011;2557;51.390;7.494;2023-04-12T00:14:51;4.93;;;2.47;;
5077;SDS011;2557;51.390;7.494;2023-04-12T00:17:17;6.33;;;2.33;;
5077;SDS011;2557;51.390;7.494;2023-04-12T00:19:43;7.30;;;2.40;;
5077;SDS011;2557;51.390;7.494;2023-04-12T00:22:11;5.77;;;2.90;;
5077;SDS011;2557;51.390;7.494;2023-04-12T00:24:38;4.13;;;2.87;;
5077;SDS011;2557;51.390;7.494;2023-04-12T00:27:04;4.37;;;3.30;;
5077;SDS011;2557;51.390;7.494;2023-04-12T00:29:31;3.77;;;2.13;;
5077;SDS011;2557;51.390;7.494;2023-04-12T00:31:57;7.10;;;3.20;;
5077;SDS011;2557;51.390;7.494;2023-04-12T00:34:25;4.00;;;2.20;;
5077;SDS011;2557;51.390;7.494;2023-04-12T00:36:52;6.73;;;3.40;;
5077;SDS011;2557;51.390;7.494;2023-04-12T00:39:18;6.10;;;2.70;;
5077;SDS011;2557;51.390;7.494;2023-04-12T00:41:44;7.60;;;2.60;;
5077;SDS011;2557;51.390;7.494;2023-04-12T00:44:10;2.97;;;2.20;;
5077;SDS011;2557;51.390;7.494;2023-04-12T00:46:36;8.23;;;2.50;;
5077;SDS011;2557;51.390;7.494;2023-04-12T00:49:02;5.53;;;2.10;;
5077;SDS011;2557;51.390;7.494;2023-04-12T00:51:30;5.00;;;2.43;;
5077;SDS011;2557;51.390;7.494;2023-04-12T00:53:58;7.27;;;2.50;;
5077;SDS011;2557;51.390;7.494;2023-04-12T00:56:25;8.10;;;3.00;;
5077;SDS011;2557;51.390;7.494;2023-04-12T00:58:56;4.33;;;2.60;;
5077;SDS011;2557;51.390;7.494;2023-04-12T01:01:22;8.33;;;2.50;;
5077;SDS011;2557;51.390;7.494;2023-04-12T01:03:48;3.27;;;2.30;;
5077;SDS011;2557;51.390;7.494;2023-04-12T01:06:36;6.57;;;2.40;;
5077;SDS011;2557;51.390;7.494;2023-04-12T01:09:22;18.13;;;3.10;;
5077;SDS011;2557;51.390;7.494;2023-04-12T01:17:05;5.10;;;2.43;;
5077;SDS011;2557;51.390;7.494;2023-04-12T01:27:38;7.50;;;2.13;;
5077;SDS011;2557;51.390;7.494;2023-04-12T01:30:05;4.50;;;2.67;;
5077;SDS011;2557;51.390;7.494;2023-04-12T01:32:33;5.90;;;2.50;;
5077;SDS011;2557;51.390;7.494;2023-04-12T01:34:59;5.03;;;2.73;;
5077;SDS011;2557;51.390;7.494;2023-04-12T01:37:26;6.90;;;2.60;;
5077;SDS011;2557;51.390;7.494;2023-04-12T01:39:53;5.33;;;2.80;;
5077;SDS011;2557;51.390;7.494;2023-04-12T01:42:19;6.30;;;2.80;;
5077;SDS011;2557;51.390;7.494;2023-04-12T01:44:45;4.40;;;2.57;;
5077;SDS011;2557;51.390;7.494;2023-04-12T01:47:11;11.03;;;2.37;;
5077;SDS011;2557;51.390;7.494;2023-04-12T01:50:13;3.43;;;1.93;;
5077;SDS011;2557;51.390;7.494;2023-04-12T01:52:30;3.43;;;2.10;;
5077;SDS011;2557;51.390;7.494;2023-04-12T01:54:56;8.00;;;2.67;;
5077;SDS011;2557;51.390;7.494;2023-04-12T01:57:24;4.87;;;2.20;;
5077;SDS011;2557;51.390;7.494;2023-04-12T01:59:50;2.77;;;1.80;;
5077;SDS011;2557;51.390;7.494;2023-04-12T02:02:16;3.83;;;2.30;;
5077;SDS011;2557;51.390;7.494;2023-04-12T02:04:42;6.83;;;2.23;;
5077;SDS011;2557;51.390;7.494;2023-04-12T02:07:09;6.50;;;2.60;;
5077;SDS011;2557;51.390;7.494;2023-04-12T02:09:36;4.50;;;2.17;;
5077;SDS011;2557;51.390;7.494;2023-04-12T02:12:02;4.27;;;2.37;;
5077;SDS011;2557;51.390;7.494;2023-04-12T02:14:28;6.90;;;2.60;;
5077;SDS011;2557;51.390;7.494;2023-04-12T02:16:55;8.10;;;2.60;;
5077;SDS011;2557;51.390;7.494;2023-04-12T02:19:22;6.47;;;3.00;;
5077;SDS011;2557;51.390;7.494;2023-04-12T02:21:48;3.70;;;2.37;;
5077;SDS011;2557;51.390;7.494;2023-04-12T02:24:15;3.93;;;2.37;;
5077;SDS011;2557;51.390;7.494;2023-04-12T02:26:41;3.87;;;2.30;;
5077;SDS011;2557;51.390;7.494;2023-04-12T02:29:07;4.70;;;2.13;;
5077;SDS011;2557;51.390;7.494;2023-04-12T02:31:34;3.73;;;2.13;;
5077;SDS011;2557;51.390;7.494;2023-04-12T02:34:00;4.30;;;2.47;;
5077;SDS011;2557;51.390;7.494;2023-04-12T02:36:26;5.70;;;2.23;;
5077;SDS011;2557;51.390;7.494;2023-04-12T02:38:53;5.07;;;2.40;;
5077;SDS011;2557;51.390;7.494;2023-04-12T02:41:20;5.33;;;2.17;;
5077;SDS011;2557;51.390;7.494;2023-04-12T02:43:46;3.83;;;2.30;;
5077;SDS011;2557;51.390;7.494;2023-04-12T02:46:14;4.23;;;2.40;;
5077;SDS011;2557;51.390;7.494;2023-04-12T02:48:40;7.10;;;2.60;;
5077;SDS011;2557;51.390;7.494;2023-04-12T02:51:06;3.47;;;2.20;;
5077;SDS011;2557;51.390;7.494;2023-04-12T02:53:32;4.30;;;1.97;;
5077;SDS011;2557;51.390;7.494;2023-04-12T02:55:58;6.10;;;2.17;;
5077;SDS011;2557;51.390;7.494;2023-04-12T02:58:25;3.07;;;1.90;;
5077;SDS011;2557;51.390;7.494;2023-04-12T03:00:51;5.80;;;2.70;;
5077;SDS011;2557;51.390;7.494;2023-04-12T03:03:17;5.20;;;3.10;;
5077;SDS011;2557;51.390;7.494;2023-04-12T03:05:43;5.57;;;1.90;;
5077;SDS011;2557;51.390;7.494;2023-04-12T03:08:11;2.80;;;2.00;;
5077;SDS011;2557;51.390;7.494;2023-04-12T03:10:37;5.53;;;3.23;;
5077;SDS011;2557;51.390;7.494;2023-04-12T03:13:03;2.37;;;2.17;;
5077;SDS011;2557;51.390;7.494;2023-04-12T03:15:30;4.63;;;2.30;;
5077;SDS011;2557;51.390;7.494;2023-04-12T03:17:56;6.33;;;2.70;;
5077;SDS011;2557;51.390;7.494;2023-04-12T03:20:22;5.47;;;2.50;;
5077;SDS011;2557;51.390;7.494;2023-04-12T03:22:49;7.53;;;4.03;;
5077;SDS011;2557;51.390;7.494;2023-04-12T03:25:15;12.00;;;2.13;;
5077;SDS011;2557;51.390;7.494;2023-04-12T03:27:42;3.03;;;2.40;;
5077;SDS011;2557;51.390;7.494;2023-04-12T03:30:08;2.80;;;2.20;;
5077;SDS011;2557;51.390;7.494;2023-04-12T03:32:38;2.17;;;1.97;;
5077;SDS011;2557;51.390;7.494;2023-04-12T03:35:05;3.87;;;2.07;;
5077;SDS011;2557;51.390;7.494;2023-04-12T03:37:32;3.73;;;2.07;;
5077;SDS011;2557;51.390;7.494;2023-04-12T03:39:58;4.13;;;1.70;;
5077;SDS011;2557;51.390;7.494;2023-04-12T03:42:24;3.33;;;2.13;;
5077;SDS011;2557;51.390;7.494;2023-04-12T03:44:51;7.33;;;1.90;;
5077;SDS011;2557;51.390;7.494;2023-04-12T03:47:17;3.00;;;2.40;;
5077;SDS011;2557;51.390;7.494;2023-04-12T03:49:43;4.03;;;1.90;;
5077;SDS011;2557;51.390;7.494;2023-04-12T03:52:09;2.93;;;2.43;;
5077;SDS011;2557;51.390;7.494;2023-04-12T03:54:35;2.77;;;1.90;;
5077;SDS011;2557;51.390;7.494;2023-04-12T03:57:01;3.73;;;1.67;;
5077;SDS011;2557;51.390;7.494;2023-04-12T03:59:28;4.00;;;2.03;;
5077;SDS011;2557;51.390;7.494;2023-04-12T04:01:55;3.23;;;2.07;;
5077;SDS011;2557;51.390;7.494;2023-04-12T04:04:21;4.33;;;2.17;;
5077;SDS011;2557;51.390;7.494;2023-04-12T04:06:48;3.70;;;1.83;;
5077;SDS011;2557;51.390;7.494;2023-04-12T04:09:14;8.10;;;2.37;;
5077;SDS011;2557;51.390;7.494;2023-04-12T04:11:40;4.03;;;2.40;;
5077;SDS011;2557;51.390;7.494;2023-04-12T04:14:06;3.43;;;1.83;;
5077;SDS011;2557;51.390;7.494;2023-04-12T04:16:33;3.00;;;2.07;;
5077;SDS011;2557;51.390;7.494;2023-04-12T04:18:59;6.03;;;2.30;;
5077;SDS011;2557;51.390;7.494;2023-04-12T04:21:25;4.10;;;2.23;;
5077;SDS011;2557;51.390;7.494;2023-04-12T04:23:54;2.10;;;1.70;;
5077;SDS011;2557;51.390;7.494;2023-04-12T04:26:22;3.00;;;2.43;;
5077;SDS011;2557;51.390;7.494;2023-04-12T04:28:57;5.43;;;1.97;;
5077;SDS011;2557;51.390;7.494;2023-04-12T04:31:25;3.40;;;2.10;;
5077;SDS011;2557;51.390;7.494;2023-04-12T04:33:51;3.93;;;1.70;;
5077;SDS011;2557;51.390;7.494;2023-04-12T04:36:17;2.47;;;1.90;;
5077;SDS011;2557;51.390;7.494;2023-04-12T04:38:43;2.60;;;2.30;;
5077;SDS011;2557;51.390;7.494;2023-04-12T04:41:09;3.10;;;1.80;;
5077;SDS011;2557;51.390;7.494;2023-04-12T04:43:36;2.50;;;2.10;;
5077;SDS011;2557;51.390;7.494;2023-04-12T04:46:03;2.37;;;2.17;;
5077;SDS011;2557;51.390;7.494;2023-04-12T04:48:29;3.00;;;2.10;;
5077;SDS011;2557;51.390;7.494;2023-04-12T04:50:55;3.53;;;2.57;;
5077;SDS011;2557;51.390;7.494;2023-04-12T04:53:21;7.20;;;2.30;;
5077;SDS011;2557;51.390;7.494;2023-04-12T04:55:47;3.40;;;2.33;;
5077;SDS011;2557;51.390;7.494;2023-04-12T04:58:14;7.17;;;2.17;;
5077;SDS011;2557;51.390;7.494;2023-04-12T05:00:40;4.47;;;1.73;;
5077;SDS011;2557;51.390;7.494;2023-04-12T05:03:08;3.47;;;1.80;;
5077;SDS011;2557;51.390;7.494;2023-04-12T05:05:35;6.90;;;1.90;;
5077;SDS011;2557;51.390;7.494;2023-04-12T05:08:01;2.47;;;2.27;;
5077;SDS011;2557;51.390;7.494;2023-04-12T05:10:27;3.23;;;2.20;;
5077;SDS011;2557;51.390;7.494;2023-04-12T05:12:53;3.97;;;1.80;;
5077;SDS011;2557;51.390;7.494;2023-04-12T05:15:19;2.90;;;1.77;;
5077;SDS011;2557;51.390;7.494;2023-04-12T05:17:45;2.83;;;2.63;;
5077;SDS011;2557;51.390;7.494;2023-04-12T05:20:11;1.67;;;1.57;;
5077;SDS011;2557;51.390;7.494;2023-04-12T05:22:37;3.13;;;2.87;;
5077;SDS011;2557;51.390;7.494;2023-04-12T05:25:03;2.90;;;2.70;;
5077;SDS011;2557;51.390;7.494;2023-04-12T05:27:30;2.50;;;2.10;;
5077;SDS011;2557;51.390;7.494;2023-04-12T05:29:56;5.80;;;3.40;;
5077;SDS011;2557;51.390;7.494;2023-04-12T05:32:23;3.30;;;1.90;;
5077;SDS011;2557;51.390;7.494;2023-04-12T05:34:49;2.87;;;2.00;;
5077;SDS011;2557;51.390;7.494;2023-04-12T05:37:16;2.60;;;1.70;;
5077;SDS011;2557;51.390;7.494;2023-04-12T05:39:42;1.93;;;1.53;;
5077;SDS011;2557;51.390;7.494;2023-04-12T05:42:08;2.73;;;1.57;;
5077;SDS011;2557;51.390;7.494;2023-04-12T05:44:34;2.10;;;1.63;;
5077;SDS011;2557;51.390;7.494;2023-04-12T05:47:03;2.13;;;1.30;;
5077;SDS011;2557;51.390;7.494;2023-04-12T05:49:29;2.23;;;1.50;;
5077;SDS011;2557;51.390;7.494;2023-04-12T05:51:55;2.90;;;1.83;;
5077;SDS011;2557;51.390;7.494;2023-04-12T05:54:21;2.07;;;1.27;;
5077;SDS011;2557;51.390;7.494;2023-04-12T05:56:49;2.43;;;1.43;;
5077;SDS011;2557;51.390;7.494;2023-04-12T05:59:15;2.60;;;1.53;;
5077;SDS011;2557;51.390;7.494;2023-04-12T06:01:43;1.67;;;1.57;;
5077;SDS011;2557;51.390;7.494;2023-04-12T06:04:09;1.60;;;1.47;;
5077;SDS011;2557;51.390;7.494;2023-04-12T06:06:35;1.60;;;1.50;;
5077;SDS011;2557;51.390;7.494;2023-04-12T06:09:02;2.40;;;1.50;;
5077;SDS011;2557;51.390;7.494;2023-04-12T06:11:29;4.47;;;1.53;;
5077;SDS011;2557;51.390;7.494;2023-04-12T06:13:57;1.90;;;1.70;;
5077;SDS011;2557;51.390;7.494;2023-04-12T06:16:23;1.60;;;1.50;;
5077;SDS011;2557;51.390;7.494;2023-04-12T06:18:49;1.70;;;1.60;;
5077;SDS011;2557;51.390;7.494;2023-04-12T06:21:16;1.53;;;1.43;;
5077;SDS011;2557;51.390;7.494;2023-04-12T06:23:43;4.20;;;1.60;;
5077;SDS011;2557;51.390;7.494;2023-04-12T06:26:09;2.67;;;1.43;;
5077;SDS011;2557;51.390;7.494;2023-04-12T06:28:35;2.13;;;1.50;;
5077;SDS011;2557;51.390;7.494;2023-04-12T06:31:01;2.50;;;2.10;;
5077;SDS011;2557;51.390;7.494;2023-04-12T06:33:28;2.80;;;1.47;;
5077;SDS011;2557;51.390;7.494;2023-04-12T06:35:54;1.50;;;1.40;;
5077;SDS011;2557;51.390;7.494;2023-04-12T06:38:20;1.53;;;1.43;;
5077;SDS011;2557;51.390;7.494;2023-04-12T06:40:46;2.00;;;1.20;;
5077;SDS011;2557;51.390;7.494;2023-04-12T06:43:12;2.17;;;1.40;;
5077;SDS011;2557;51.390;7.494;2023-04-12T06:45:39;1.40;;;1.30;;
5077;SDS011;2557;51.390;7.494;2023-04-12T06:48:05;2.30;;;1.40;;
5077;SDS011;2557;51.390;7.494;2023-04-12T06:50:31;1.20;;;1.10;;
5077;SDS011;2557;51.390;7.494;2023-04-12T06:52:58;4.40;;;1.60;;
5077;SDS011;2557;51.390;7.494;2023-04-12T06:55:24;1.87;;;1.40;;
5077;SDS011;2557;51.390;7.494;2023-04-12T06:57:52;1.40;;;1.30;;
5077;SDS011;2557;51.390;7.494;2023-04-12T07:00:18;1.23;;;1.13;;
5077;SDS011;2557;51.390;7.494;2023-04-12T07:02:45;2.77;;;1.30;;
5077;SDS011;2557;51.390;7.494;2023-04-12T07:05:11;1.40;;;1.10;;
5077;SDS011;2557;51.390;7.494;2023-04-12T07:07:37;1.47;;;1.20;;
5077;SDS011;2557;51.390;7.494;2023-04-12T07:10:03;1.50;;;1.40;;
5077;SDS011;2557;51.390;7.494;2023-04-12T07:12:29;1.20;;;1.10;;
5077;SDS011;2557;51.390;7.494;2023-04-12T07:14:55;1.43;;;1.20;;
5077;SDS011;2557;51.390;7.494;2023-04-12T07:17:22;1.17;;;1.07;;
5077;SDS011;2557;51.390;7.494;2023-04-12T07:19:50;1.20;;;1.10;;
5077;SDS011;2557;51.390;7.494;2023-04-12T07:22:17;2.90;;;1.50;;
5077;SDS011;2557;51.390;7.494;2023-04-12T07:24:43;1.33;;;1.23;;
5077;SDS011;2557;51.390;7.494;2023-04-12T07:27:08;1.60;;;1.30;;
5077;SDS011;2557;51.390;7.494;2023-04-12T07:29:35;1.20;;;1.10;;
5077;SDS011;2557;51.390;7.494;2023-04-12T07:32:01;1.03;;;1.00;;
5077;SDS011;2557;51.390;7.494;2023-04-12T07:34:27;1.20;;;1.10;;
5077;SDS011;2557;51.390;7.494;2023-04-12T07:36:53;1.07;;;1.00;;
5077;SDS011;2557;51.390;7.494;2023-04-12T07:39:20;1.47;;;1.33;;
5077;SDS011;2557;51.390;7.494;2023-04-12T07:41:45;2.20;;;1.10;;
5077;SDS011;2557;51.390;7.494;2023-04-12T07:44:12;2.20;;;1.10;;
5077;SDS011;2557;51.390;7.494;2023-04-12T07:46:39;1.30;;;1.20;;
5077;SDS011;2557;51.390;7.494;2023-04-12T07:49:07;1.20;;;1.10;;
5077;SDS011;2557;51.390;7.494;2023-04-12T07:51:34;2.30;;;1.13;;
5077;SDS011;2557;51.390;7.494;2023-04-12T07:54:00;1.97;;;1.20;;
5077;SDS011;2557;51.390;7.494;2023-04-12T07:56:27;1.10;;;1.00;;
5077;SDS011;2557;51.390;7.494;2023-04-12T07:58:53;1.60;;;1.30;;
5077;SDS011;2557;51.390;7.494;2023-04-12T08:01:19;1.43;;;1.20;;
5077;SDS011;2557;51.390;7.494;2023-04-12T08:03:45;1.30;;;1.20;;
5077;SDS011;2557;51.390;7.494;2023-04-12T08:06:11;1.60;;;1.50;;
5077;SDS011;2557;51.390;7.494;2023-04-12T08:08:37;1.77;;;1.17;;
5077;SDS011;2557;51.390;7.494;2023-04-12T08:11:03;1.30;;;1.20;;
5077;SDS011;2557;51.390;7.494;2023-04-12T08:13:30;1.20;;;1.10;;
5077;SDS011;2557;51.390;7.494;2023-04-12T08:15:57;1.20;;;1.10;;
5077;SDS011;2557;51.390;7.494;2023-04-12T08:18:23;1.17;;;1.07;;
5077;SDS011;2557;51.390;7.494;2023-04-12T08:20:49;3.70;;;1.70;;
5077;SDS011;2557;51.390;7.494;2023-04-12T08:23:16;1.10;;;1.00;;
5077;SDS011;2557;51.390;7.494;2023-04-12T08:25:42;1.30;;;1.20;;
5077;SDS011;2557;51.390;7.494;2023-04-12T08:28:08;1.90;;;1.40;;
5077;SDS011;2557;51.390;7.494;2023-04-12T08:30:34;1.10;;;1.00;;
5077;SDS011;2557;51.390;7.494;2023-04-12T08:33:01;1.20;;;1.10;;
5077;SDS011;2557;51.390;7.494;2023-04-12T08:35:27;1.20;;;1.10;;
5077;SDS011;2557;51.390;7.494;2023-04-12T08:37:53;1.20;;;1.10;;
5077;SDS011;2557;51.390;7.494;2023-04-12T08:40:19;1.10;;;1.10;;
5077;SDS011;2557;51.390;7.494;2023-04-12T08:42:45;1.23;;;1.10;;
5077;SDS011;2557;51.390;7.494;2023-04-12T08:45:12;1.30;;;1.20;;
5077;SDS011;2557;51.390;7.494;2023-04-12T08:47:39;1.07;;;0.97;;
5077;SDS011;2557;51.390;7.494;2023-04-12T08:50:05;1.50;;;1.10;;
5077;SDS011;2557;51.390;7.494;2023-04-12T08:52:37;1.00;;;1.00;;
5077;SDS011;2557;51.390;7.494;2023-04-12T08:55:06;2.03;;;1.10;;
5077;SDS011;2557;51.390;7.494;2023-04-12T08:57:35;1.10;;;0.90;;
5077;SDS011;2557;51.390;7.494;2023-04-12T09:00:03;1.43;;;1.30;;
5077;SDS011;2557;51.390;7.494;2023-04-12T09:02:32;1.27;;;1.17;;
5077;SDS011;2557;51.390;7.494;2023-04-12T09:05:00;1.30;;;1.20;;
5077;SDS011;2557;51.390;7.494;2023-04-12T09:07:26;1.73;;;1.00;;
5077;SDS011;2557;51.390;7.494;2023-04-12T09:09:54;1.37;;;1.27;;
5077;SDS011;2557;51.390;7.494;2023-04-12T09:12:20;3.73;;;1.00;;
5077;SDS011;2557;51.390;7.494;2023-04-12T09:14:48;1.27;;;1.17;;
5077;SDS011;2557;51.390;7.494;2023-04-12T09:17:30;1.20;;;1.10;;
5077;SDS011;2557;51.390;7.494;2023-04-12T09:19:57;1.40;;;1.30;;
5077;SDS011;2557;51.390;7.494;2023-04-12T09:22:36;1.23;;;1.13;;
5077;SDS011;2557;51.390;7.494;2023-04-12T09:25:09;1.40;;;1.30;;
5077;SDS011;2557;51.390;7.494;2023-04-12T09:28:35;1.37;;;1.27;;
5077;SDS011;2557;51.390;7.494;2023-04-12T09:30:32;1.30;;;1.20;;
5077;SDS011;2557;51.390;7.494;2023-04-12T09:33:11;1.63;;;1.10;;
5077;SDS011;2557;51.390;7.494;2023-04-12T09:35:38;1.40;;;1.30;;
5077;SDS011;2557;51.390;7.494;2023-04-12T09:38:10;2.80;;;1.30;;
5077;SDS011;2557;51.390;7.494;2023-04-12T09:40:36;1.20;;;1.10;;
5077;SDS011;2557;51.390;7.494;2023-04-12T09:43:02;1.20;;;1.10;;
5077;SDS011;2557;51.390;7.494;2023-04-12T09:45:30;1.30;;;1.20;;
5077;SDS011;2557;51.390;7.494;2023-04-12T09:47:56;1.23;;;1.13;;
5077;SDS011;2557;51.390;7.494;2023-04-12T09:50:28;1.00;;;1.00;;
5077;SDS011;2557;51.390;7.494;2023-04-12T09:52:57;1.27;;;1.17;;
5077;SDS011;2557;51.390;7.494;2023-04-12T09:55:24;1.87;;;1.20;;
5077;SDS011;2557;51.390;7.494;2023-04-12T09:57:51;1.40;;;1.30;;
5077;SDS011;2557;51.390;7.494;2023-04-12T10:00:18;9.30;;;2.90;;
5077;SDS011;2557;51.390;7.494;2023-04-12T10:02:47;2.50;;;1.50;;
5077;SDS011;2557;51.390;7.494;2023-04-12T10:05:16;1.57;;;1.17;;
5077;SDS011;2557;51.390;7.494;2023-04-12T10:07:42;1.37;;;1.27;;
5077;SDS011;2557;51.390;7.494;2023-04-12T10:10:09;1.50;;;1.40;;
5077;SDS011;2557;51.390;7.494;2023-04-12T10:12:36;1.30;;;1.20;;
5077;SDS011;2557;51.390;7.494;2023-04-12T10:15:06;1.30;;;1.20;;
5077;SDS011;2557;51.390;7.494;2023-04-12T10:17:36;1.47;;;1.27;;
5077;SDS011;2557;51.390;7.494;2023-04-12T10:20:06;1.50;;;1.40;;
5077;SDS011;2557;51.390;7.494;2023-04-12T10:22:33;1.30;;;1.20;;
5077;SDS011;2557;51.390;7.494;2023-04-12T10:24:59;1.30;;;1.20;;
5077;SDS011;2557;51.390;7.494;2023-04-12T10:27:25;1.10;;;1.10;;
5077;SDS011;2557;51.390;7.494;2023-04-12T10:29:51;1.30;;;1.20;;
5077;SDS011;2557;51.390;7.494;2023-04-12T10:32:18;4.03;;;1.30;;
5077;SDS011;2557;51.390;7.494;2023-04-12T10:34:49;1.40;;;1.30;;
5077;SDS011;2557;51.390;7.494;2023-04-12T10:37:15;1.10;;;1.10;;
5077;SDS011;2557;51.390;7.494;2023-04-12T10:39:42;1.20;;;1.10;;
5077;SDS011;2557;51.390;7.494;2023-04-12T10:44:40;1.40;;;1.30;;
5077;SDS011;2557;51.390;7.494;2023-04-12T10:47:06;1.27;;;1.17;;
5077;SDS011;2557;51.390;7.494;2023-04-12T10:49:33;1.40;;;1.30;;
5077;SDS011;2557;51.390;7.494;2023-04-12T10:56:52;1.10;;;1.10;;
5077;SDS011;2557;51.390;7.494;2023-04-12T10:59:19;1.20;;;1.10;;
5077;SDS011;2557;51.390;7.494;2023-04-12T11:04:30;1.00;;;1.00;;
5077;SDS011;2557;51.390;7.494;2023-04-12T11:06:59;1.20;;;1.10;;
5077;SDS011;2557;51.390;7.494;2023-04-12T11:11:57;1.30;;;1.20;;
5077;SDS011;2557;51.390;7.494;2023-04-12T11:14:25;1.30;;;1.20;;
5077;SDS011;2557;51.390;7.494;2023-04-12T11:19:31;1.30;;;1.20;;
5077;SDS011;2557;51.390;7.494;2023-04-12T11:22:04;1.40;;;1.30;;
5077;SDS011;2557;51.390;7.494;2023-04-12T11:24:30;1.30;;;1.20;;
5077;SDS011;2557;51.390;7.494;2023-04-12T11:26:57;1.30;;;1.20;;
5077;SDS011;2557;51.390;7.494;2023-04-12T11:29:28;1.50;;;1.40;;
5077;SDS011;2557;51.390;7.494;2023-04-12T11:31:56;1.37;;;1.27;;
5077;SDS011;2557;51.390;7.494;2023-04-12T11:34:22;1.70;;;1.60;;
5077;SDS011;2557;51.390;7.494;2023-04-12T11:36:52;1.70;;;1.60;;
5077;SDS011;2557;51.390;7.494;2023-04-12T11:39:19;1.60;;;1.43;;
5077;SDS011;2557;51.390;7.494;2023-04-12T11:41:46;2.03;;;1.47;;
5077;SDS011;2557;51.390;7.494;2023-04-12T11:44:12;1.50;;;1.40;;
5077;SDS011;2557;51.390;7.494;2023-04-12T11:46:39;1.47;;;1.37;;
5077;SDS011;2557;51.390;7.494;2023-04-12T11:49:05;1.57;;;1.47;;
5077;SDS011;2557;51.390;7.494;2023-04-12T11:51:31;2.47;;;1.40;;
5077;SDS011;2557;51.390;7.494;2023-04-12T11:53:58;1.77;;;1.67;;
5077;SDS011;2557;51.390;7.494;2023-04-12T11:56:25;1.77;;;1.60;;
5077;SDS011;2557;51.390;7.494;2023-04-12T11:58:51;1.83;;;1.40;;
5077;SDS011;2557;51.390;7.494;2023-04-12T12:01:17;1.77;;;1.67;;
5077;SDS011;2557;51.390;7.494;2023-04-12T12:03:44;4.80;;;1.50;;
5077;SDS011;2557;51.390;7.494;2023-04-12T12:06:10;3.00;;;1.40;;
5077;SDS011;2557;51.390;7.494;2023-04-12T12:08:36;1.30;;;1.20;;
5077;SDS011;2557;51.390;7.494;2023-04-12T12:11:03;2.67;;;1.33;;
5077;SDS011;2557;51.390;7.494;2023-04-12T12:13:45;1.93;;;1.40;;
5077;SDS011;2557;51.390;7.494;2023-04-12T12:16:11;1.50;;;1.33;;
5077;SDS011;2557;51.390;7.494;2023-04-12T12:18:44;1.40;;;1.30;;
5077;SDS011;2557;51.390;7.494;2023-04-12T12:21:10;1.70;;;1.60;;
5077;SDS011;2557;51.390;7.494;2023-04-12T12:23:37;1.57;;;1.47;;
5077;SDS011;2557;51.390;7.494;2023-04-12T12:26:04;1.63;;;1.53;;
5077;SDS011;2557;51.390;7.494;2023-04-12T12:28:36;1.60;;;1.50;;
5077;SDS011;2557;51.390;7.494;2023-04-12T12:31:04;3.23;;;1.70;;
5077;SDS011;2557;51.390;7.494;2023-04-12T12:33:37;3.00;;;1.33;;
5077;SDS011;2557;51.390;7.494;2023-04-12T12:36:04;1.60;;;1.50;;
5077;SDS011;2557;51.390;7.494;2023-04-12T12:38:34;1.70;;;1.60;;
5077;SDS011;2557;51.390;7.494;2023-04-12T12:43:43;2.10;;;1.90;;
5077;SDS011;2557;51.390;7.494;2023-04-12T12:46:09;2.30;;;1.80;;
5077;SDS011;2557;51.390;7.494;2023-04-12T12:48:41;2.03;;;1.73;;
5077;SDS011;2557;51.390;7.494;2023-04-12T12:51:07;2.20;;;2.00;;
5077;SDS011;2557;51.390;7.494;2023-04-12T12:53:34;2.30;;;2.10;;
5077;SDS011;2557;51.390;7.494;2023-04-12T12:56:00;2.00;;;1.90;;
5077;SDS011;2557;51.390;7.494;2023-04-12T12:58:26;2.77;;;2.33;;
5077;SDS011;2557;51.390;7.494;2023-04-12T13:00:53;2.00;;;1.90;;
5077;SDS011;2557;51.390;7.494;2023-04-12T13:03:19;3.00;;;2.80;;
5077;SDS011;2557;51.390;7.494;2023-04-12T13:05:45;4.53;;;2.40;;
5077;SDS011;2557;51.390;7.494;2023-04-12T13:08:11;2.40;;;2.30;;
5077;SDS011;2557;51.390;7.494;2023-04-12T13:10:37;2.83;;;2.50;;
5077;SDS011;2557;51.390;7.494;2023-04-12T13:13:03;4.90;;;3.07;;
5077;SDS011;2557;51.390;7.494;2023-04-12T13:15:29;2.40;;;2.30;;
5077;SDS011;2557;51.390;7.494;2023-04-12T13:17:55;4.33;;;2.80;;
5077;SDS011;2557;51.390;7.494;2023-04-12T13:20:21;5.40;;;2.70;;
5077;SDS011;2557;51.390;7.494;2023-04-12T13:22:48;5.20;;;3.10;;
5077;SDS011;2557;51.390;7.494;2023-04-12T13:25:14;5.93;;;3.20;;
5077;SDS011;2557;51.390;7.494;2023-04-12T13:27:40;3.53;;;3.23;;
5077;SDS011;2557;51.390;7.494;2023-04-12T13:30:06;3.03;;;2.47;;
5077;SDS011;2557;51.390;7.494;2023-04-12T13:32:32;3.20;;;2.63;;
5077;SDS011;2557;51.390;7.494;2023-04-12T13:34:59;3.10;;;2.80;;
5077;SDS011;2557;51.390;7.494;2023-04-12T13:37:25;4.20;;;2.53;;
5077;SDS011;2557;51.390;7.494;2023-04-12T13:39:51;2.63;;;2.43;;
5077;SDS011;2557;51.390;7.494;2023-04-12T13:42:17;3.53;;;2.50;;
5077;SDS011;2557;51.390;7.494;2023-04-12T13:44:43;2.97;;;2.77;;
5077;SDS011;2557;51.390;7.494;2023-04-12T13:47:09;5.83;;;3.23;;
5077;SDS011;2557;51.390;7.494;2023-04-12T13:49:35;3.77;;;2.20;;
5077;SDS011;2557;51.390;7.494;2023-04-12T13:52:02;1.93;;;1.83;;
5077;SDS011;2557;51.390;7.494;2023-04-12T13:54:28;2.30;;;2.10;;
5077;SDS011;2557;51.390;7.494;2023-04-12T13:56:54;4.07;;;2.13;;
5077;SDS011;2557;51.390;7.494;2023-04-12T13:59:21;3.50;;;1.83;;
5077;SDS011;2557;51.390;7.494;2023-04-12T14:01:47;3.40;;;2.40;;
5077;SDS011;2557;51.390;7.494;2023-04-12T14:04:13;2.33;;;2.00;;
5077;SDS011;2557;51.390;7.494;2023-04-12T14:06:39;2.60;;;2.33;;
5077;SDS011;2557;51.390;7.494;2023-04-12T14:09:05;3.13;;;2.60;;
5077;SDS011;2557;51.390;7.494;2023-04-12T14:11:45;2.70;;;1.83;;
5077;SDS011;2557;51.390;7.494;2023-04-12T14:14:11;2.47;;;2.27;;
5077;SDS011;2557;51.390;7.494;2023-04-12T14:16:37;2.77;;;2.20;;
5077;SDS011;2557;51.390;7.494;2023-04-12T14:19:03;3.10;;;2.50;;
5077;SDS011;2557;51.390;7.494;2023-04-12T14:21:29;6.47;;;2.60;;
5077;SDS011;2557;51.390;7.494;2023-04-12T14:23:55;15.13;;;2.60;;
5077;SDS011;2557;51.390;7.494;2023-04-12T14:26:21;6.77;;;2.20;;
5077;SDS011;2557;51.390;7.494;2023-04-12T14:28:47;4.17;;;2.30;;
5077;SDS011;2557;51.390;7.494;2023-04-12T14:31:14;11.20;;;4.40;;
5077;SDS011;2557;51.390;7.494;2023-04-12T14:33:40;5.40;;;2.97;;
5077;SDS011;2557;51.390;7.494;2023-04-12T14:36:06;4.27;;;2.60;;
5077;SDS011;2557;51.390;7.494;2023-04-12T14:38:33;3.67;;;2.37;;
5077;SDS011;2557;51.390;7.494;2023-04-12T14:40:59;5.97;;;2.50;;
5077;SDS011;2557;51.390;7.494;2023-04-12T14:43:26;6.30;;;3.03;;
5077;SDS011;2557;51.390;7.494;2023-04-12T14:45:52;6.97;;;3.37;;
5077;SDS011;2557;51.390;7.494;2023-04-12T14:48:21;6.63;;;3.20;;
5077;SDS011;2557;51.390;7.494;2023-04-12T14:50:47;5.97;;;3.27;;
5077;SDS011;2557;51.390;7.494;2023-04-12T14:53:13;4.80;;;2.70;;
5077;SDS011;2557;51.390;7.494;2023-04-12T14:55:40;7.60;;;2.60;;
5077;SDS011;2557;51.390;7.494;2023-04-12T14:58:06;6.70;;;2.77;;
5077;SDS011;2557;51.390;7.494;2023-04-12T15:00:33;5.07;;;3.00;;
5077;SDS011;2557;51.390;7.494;2023-04-12T15:02:59;6.13;;;3.10;;
5077;SDS011;2557;51.390;7.494;2023-04-12T15:05:25;6.90;;;2.90;;
5077;SDS011;2557;51.390;7.494;2023-04-12T15:07:52;6.73;;;4.53;;
5077;SDS011;2557;51.390;7.494;2023-04-12T15:10:18;8.80;;;4.60;;
5077;SDS011;2557;51.390;7.494;2023-04-12T15:12:45;12.23;;;5.57;;
5077;SDS011;2557;51.390;7.494;2023-04-12T15:15:11;12.73;;;5.43;;
5077;SDS011;2557;51.390;7.494;2023-04-12T15:17:37;12.20;;;5.73;;
5077;SDS011;2557;51.390;7.494;2023-04-12T15:20:04;13.90;;;6.50;;
5077;SDS011;2557;51.390;7.494;2023-04-12T15:22:33;15.80;;;6.40;;
5077;SDS011;2557;51.390;7.494;2023-04-12T15:24:59;14.63;;;6.93;;
5077;SDS011;2557;51.390;7.494;2023-04-12T15:27:26;6.07;;;5.47;;
5077;SDS011;2557;51.390;7.494;2023-04-12T15:29:54;10.87;;;6.10;;
5077;SDS011;2557;51.390;7.494;2023-04-12T15:32:20;10.10;;;4.80;;
5077;SDS011;2557;51.390;7.494;2023-04-12T15:34:46;5.73;;;4.50;;
5077;SDS011;2557;51.390;7.494;2023-04-12T15:37:12;11.80;;;5.80;;
5077;SDS011;2557;51.390;7.494;2023-04-12T15:39:38;7.57;;;4.47;;
5077;SDS011;2557;51.390;7.494;2023-04-12T15:42:05;7.70;;;4.43;;
5077;SDS011;2557;51.390;7.494;2023-04-12T15:44:31;7.40;;;4.00;;